Time;durP1;ratioP1;P1;durP2;ratioP2;P2;SDS_P1;SDS_P2;PMS_P1;PMS_P2;Temp;Humidity;BMP_temperature;BMP_pressure;BME280_temperature;BME280_humidity;BME280_pressure;Samples;Min_cycle;Max_cycle;Signal;HPM_P1;HPM_P2
2024/03/01 00:01:31;;;;;;;;;2.00;2.00;;;;;;;;5080273;27;45320;-67
2024/03/01 00:03:56;;;;;;;;;2.67;2.67;;;;;;;;5085020;27;45232;-67
2024/03/01 00:06:21;;;;;;;;;2.00;2.00;;;;;;;;5088882;27;45426;-67
2024/03/01 00:08:48;;;;;;;;;3.00;3.00;;;;;;;;5093937;27;45675;-67
2024/03/01 00:11:13;;;;;;;;;4.00;2.00;;;;;;;;5098132;27;45333;-67
2024/03/01 00:13:38;;;;;;;;;3.00;3.00;;;;;;;;5100660;27;45237;-67
2024/03/01 00:16:03;;;;;;;;;2.33;2.33;;;;;;;;5087658;27;45590;-67
2024/03/01 00:18:28;;;;;;;;;4.00;3.00;;;;;;;;5093765;27;45393;-67
2024/03/01 00:20:54;;;;;;;;;4.00;1.00;;;;;;;;5088870;27;45218;-67
2024/03/01 00:23:19;;;;;;;;;1.00;1.00;;;;;;;;5085110;27;45369;-67
2024/03/01 00:25:44;;;;;;;;;2.50;2.25;;;;;;;;5099183;27;45295;-67
2024/03/01 00:28:10;;;;;;;;;2.00;2.00;;;;;;;;5088354;27;46238;-67
2024/03/01 00:30:35;;;;;;;;;2.75;2.75;;;;;;;;5079428;27;45314;-67
2024/03/01 00:33:02;;;;;;;;;2.00;2.00;;;;;;;;5082238;27;45416;-67
2024/03/01 00:35:28;;;;;;;;;4.00;2.25;;;;;;;;5091053;27;45540;-67
2024/03/01 00:37:53;;;;;;;;;1.33;1.33;;;;;;;;5082264;27;46230;-67
2024/03/01 00:40:18;;;;;;;;;2.67;2.00;;;;;;;;5083284;27;45373;-67
2024/03/01 00:42:43;;;;;;;;;1.33;1.33;;;;;;;;5081819;27;45551;-67
2024/03/01 00:45:09;;;;;;;;;1.75;1.75;;;;;;;;5091097;27;45553;-67
2024/03/01 00:47:34;;;;;;;;;1.00;1.00;;;;;;;;5083839;27;46206;-67
2024/03/01 00:49:59;;;;;;;;;1.00;1.00;;;;;;;;5086963;27;45538;-67
2024/03/01 00:52:24;;;;;;;;;1.00;1.00;;;;;;;;5082369;27;45295;-67
2024/03/01 00:54:49;;;;;;;;;1.00;1.00;;;;;;;;5090946;27;45405;-67
2024/03/01 00:57:14;;;;;;;;;1.00;0.00;;;;;;;;5080796;27;46158;-67
2024/03/01 00:59:40;;;;;;;;;1.00;1.00;;;;;;;;5090903;27;45305;-67
2024/03/01 01:02:07;;;;;;;;;1.00;1.00;;;;;;;;5081951;27;45575;-66
2024/03/01 01:04:32;;;;;;;;;1.00;1.00;;;;;;;;5095628;27;45511;-67
2024/03/01 01:06:57;;;;;;;;;0.00;0.00;;;;;;;;5090254;27;45327;-67
2024/03/01 01:09:22;;;;;;;;;0.00;0.00;;;;;;;;5089235;27;45413;-67
2024/03/01 01:11:48;;;;;;;;;0.00;0.00;;;;;;;;5086179;27;45520;-67
2024/03/01 01:14:13;;;;;;;;;0.00;0.00;;;;;;;;5097860;27;45397;-67
2024/03/01 01:16:38;;;;;;;;;1.75;0.00;;;;;;;;5093160;27;46360;-67
2024/03/01 01:19:03;;;;;;;;;1.00;0.00;;;;;;;;5085504;27;45518;-67
2024/03/01 01:21:31;;;;;;;;;0.00;0.00;;;;;;;;5081464;27;45836;-67
2024/03/01 01:23:56;;;;;;;;;1.00;1.00;;;;;;;;5090095;27;45457;-67
2024/03/01 01:26:21;;;;;;;;;0.75;0.00;;;;;;;;5077904;27;46065;-67
2024/03/01 01:28:48;;;;;;;;;1.00;1.00;;;;;;;;5081323;27;45464;-67
2024/03/01 01:31:13;;;;;;;;;0.00;0.00;;;;;;;;5092702;27;45310;-67
2024/03/01 01:33:38;;;;;;;;;0.00;0.00;;;;;;;;5093908;27;45541;-67
2024/03/01 01:36:05;;;;;;;;;2.00;0.00;;;;;;;;5091939;27;46229;-67
2024/03/01 01:38:30;;;;;;;;;1.00;0.00;;;;;;;;5072959;27;45663;-67
2024/03/01 01:40:55;;;;;;;;;1.00;0.00;;;;;;;;5083930;27;45452;-67
2024/03/01 01:43:21;;;;;;;;;1.33;0.33;;;;;;;;5086619;27;45631;-67
2024/03/01 01:45:46;;;;;;;;;1.00;1.00;;;;;;;;5085511;27;45581;-67
2024/03/01 01:48:11;;;;;;;;;0.00;0.00;;;;;;;;5089571;27;45408;-67
2024/03/01 01:50:36;;;;;;;;;0.00;0.00;;;;;;;;5092645;27;45324;-67
2024/03/01 01:53:02;;;;;;;;;0.50;0.50;;;;;;;;5087630;27;45450;-67
2024/03/01 01:55:27;;;;;;;;;1.25;0.00;;;;;;;;5087613;27;46136;-67
2024/03/01 01:57:52;;;;;;;;;0.00;0.00;;;;;;;;5084449;27;45390;-67
2024/03/01 02:00:18;;;;;;;;;0.00;0.00;;;;;;;;5066503;27;45782;-67
2024/03/01 02:02:45;;;;;;;;;0.00;0.00;;;;;;;;5094616;27;45487;-67
2024/03/01 02:05:10;;;;;;;;;0.00;0.00;;;;;;;;5068421;27;45777;-67
2024/03/01 02:07:36;;;;;;;;;2.00;0.00;;;;;;;;5088204;27;45358;-67
2024/03/01 02:10:09;;;;;;;;;1.00;0.00;;;;;;;;5080272;27;45507;-67
2024/03/01 02:12:34;;;;;;;;;0.00;0.00;;;;;;;;5083016;27;45308;-67
2024/03/01 02:14:59;;;;;;;;;0.25;0.00;;;;;;;;5094460;27;45345;-67
2024/03/01 02:17:24;;;;;;;;;0.67;0.67;;;;;;;;5089068;27;45359;-66
2024/03/01 02:19:51;;;;;;;;;0.00;0.00;;;;;;;;5080423;27;45551;-67
2024/03/01 02:22:18;;;;;;;;;0.00;0.00;;;;;;;;5089053;27;45452;-67
2024/03/01 02:24:43;;;;;;;;;0.00;0.00;;;;;;;;5078005;27;46568;-66
2024/03/01 02:27:08;;;;;;;;;0.00;0.00;;;;;;;;5077863;27;45421;-66
2024/03/01 02:29:33;;;;;;;;;0.00;0.00;;;;;;;;5079109;27;45496;-66
2024/03/01 02:31:58;;;;;;;;;0.00;0.00;;;;;;;;5089695;27;45613;-67
2024/03/01 02:34:24;;;;;;;;;1.67;1.67;;;;;;;;5089836;27;47412;-66
2024/03/01 02:36:49;;;;;;;;;1.00;0.00;;;;;;;;5095005;27;45664;-67
2024/03/01 02:39:18;;;;;;;;;1.00;1.00;;;;;;;;5095172;27;45586;-67
2024/03/01 02:41:47;;;;;;;;;2.00;1.00;;;;;;;;5079512;27;45247;-67
2024/03/01 02:44:12;;;;;;;;;0.00;0.00;;;;;;;;5079746;27;46162;-67
2024/03/01 02:46:37;;;;;;;;;0.75;0.75;;;;;;;;5068630;27;45480;-67
2024/03/01 02:49:03;;;;;;;;;2.67;1.00;;;;;;;;5079809;27;45423;-67
2024/03/01 02:51:28;;;;;;;;;1.00;0.00;;;;;;;;5067072;27;45485;-66
2024/03/01 02:53:53;;;;;;;;;0.00;0.00;;;;;;;;5066517;27;46084;-67
2024/03/01 02:56:18;;;;;;;;;2.00;1.00;;;;;;;;5081240;27;45494;-67
2024/03/01 02:58:44;;;;;;;;;1.00;1.00;;;;;;;;5078433;27;45674;-67
2024/03/01 03:01:09;;;;;;;;;1.00;1.00;;;;;;;;5068869;27;45441;-67
2024/03/01 03:03:34;;;;;;;;;0.67;0.67;;;;;;;;5074495;27;46187;-66
2024/03/01 03:05:59;;;;;;;;;2.00;2.00;;;;;;;;5076627;27;45373;-66
2024/03/01 03:08:24;;;;;;;;;1.00;1.00;;;;;;;;5078937;27;45425;-67
2024/03/01 03:10:50;;;;;;;;;0.33;0.00;;;;;;;;5065969;28;45319;-66
2024/03/01 03:13:15;;;;;;;;;0.00;0.00;;;;;;;;5071852;27;46250;-67
2024/03/01 03:15:40;;;;;;;;;1.00;1.00;;;;;;;;5067232;27;45349;-67
2024/03/01 03:18:05;;;;;;;;;1.00;1.00;;;;;;;;5079612;27;45525;-67
2024/03/01 03:20:35;;;;;;;;;1.00;0.00;;;;;;;;5088174;27;45745;-66
2024/03/01 03:23:00;;;;;;;;;3.25;2.00;;;;;;;;5088166;27;46357;-67
2024/03/01 03:25:25;;;;;;;;;1.00;1.00;;;;;;;;5080522;27;45296;-67
2024/03/01 03:27:50;;;;;;;;;3.25;1.00;;;;;;;;5080554;27;45928;-67
2024/03/01 03:30:16;;;;;;;;;0.00;0.00;;;;;;;;5083873;27;45591;-66
2024/03/01 03:32:41;;;;;;;;;1.00;1.00;;;;;;;;5081541;27;45429;-67
2024/03/01 03:35:07;;;;;;;;;1.00;1.00;;;;;;;;5081178;27;45591;-67
2024/03/01 03:37:32;;;;;;;;;2.00;2.00;;;;;;;;5088554;27;45632;-67
2024/03/01 03:39:57;;;;;;;;;1.00;1.00;;;;;;;;5093487;27;45639;-67
2024/03/01 03:42:22;;;;;;;;;1.00;1.00;;;;;;;;5080523;27;45575;-67
2024/03/01 03:44:47;;;;;;;;;3.67;2.00;;;;;;;;5086696;27;45391;-67
2024/03/01 03:47:12;;;;;;;;;4.00;2.00;;;;;;;;5088296;27;45361;-66
2024/03/01 03:49:38;;;;;;;;;2.33;0.00;;;;;;;;5093435;27;45459;-67
2024/03/01 03:52:03;;;;;;;;;3.00;1.00;;;;;;;;5070654;27;46293;-67
2024/03/01 03:54:29;;;;;;;;;1.00;1.00;;;;;;;;5094118;27;45738;-66
2024/03/01 03:56:54;;;;;;;;;1.00;1.00;;;;;;;;5080064;27;45493;-67
2024/03/01 03:59:19;;;;;;;;;1.00;1.00;;;;;;;;5079503;27;46183;-67
2024/03/01 04:01:44;;;;;;;;;1.67;1.67;;;;;;;;5093335;27;46761;-67
2024/03/01 04:04:09;;;;;;;;;1.00;1.00;;;;;;;;5089095;27;45322;-66
2024/03/01 04:06:35;;;;;;;;;1.00;1.00;;;;;;;;5101033;27;45306;-67
2024/03/01 04:09:00;;;;;;;;;1.00;1.00;;;;;;;;5087030;27;45306;-67
2024/03/01 04:11:25;;;;;;;;;3.00;1.00;;;;;;;;5100698;27;45413;-66
2024/03/01 04:13:50;;;;;;;;;1.00;1.00;;;;;;;;5086649;27;45421;-67
2024/03/01 04:16:17;;;;;;;;;0.33;0.00;;;;;;;;5100822;27;45389;-67
2024/03/01 04:18:42;;;;;;;;;0.00;0.00;;;;;;;;5093433;27;45412;-66
2024/03/01 04:21:07;;;;;;;;;0.00;0.00;;;;;;;;5086805;27;45658;-66
2024/03/01 04:23:33;;;;;;;;;0.00;0.00;;;;;;;;5085461;27;45642;-67
2024/03/01 04:25:58;;;;;;;;;0.00;0.00;;;;;;;;5099794;27;45380;-67
2024/03/01 04:28:27;;;;;;;;;0.25;0.25;;;;;;;;5087923;27;45358;-67
2024/03/01 04:30:53;;;;;;;;;0.25;0.25;;;;;;;;5091588;27;45555;-67
2024/03/01 04:33:18;;;;;;;;;2.00;0.50;;;;;;;;5095458;27;45607;-67
2024/03/01 04:35:44;;;;;;;;;1.33;1.00;;;;;;;;5100788;27;45517;-67
2024/03/01 04:38:09;;;;;;;;;3.00;1.00;;;;;;;;5081725;27;45408;-66
2024/03/01 04:40:37;;;;;;;;;1.50;0.00;;;;;;;;5078046;27;47103;-67
2024/03/01 04:43:03;;;;;;;;;0.75;0.25;;;;;;;;5079504;27;45613;-67
2024/03/01 04:45:28;;;;;;;;;1.00;0.00;;;;;;;;5079833;27;45320;-66
2024/03/01 04:47:53;;;;;;;;;2.00;1.00;;;;;;;;5093740;27;45534;-67
2024/03/01 04:50:19;;;;;;;;;1.00;0.00;;;;;;;;5075617;27;46611;-67
2024/03/01 04:52:44;;;;;;;;;0.00;0.00;;;;;;;;5091993;27;45500;-66
2024/03/01 04:55:10;;;;;;;;;1.00;1.00;;;;;;;;5091896;27;45394;-67
2024/03/01 04:57:35;;;;;;;;;2.75;1.00;;;;;;;;5084193;27;45372;-66
2024/03/01 05:00:01;;;;;;;;;1.00;1.00;;;;;;;;5079344;27;45372;-67
2024/03/01 05:02:26;;;;;;;;;1.00;1.00;;;;;;;;5095898;27;45426;-67
2024/03/01 05:04:51;;;;;;;;;1.33;1.33;;;;;;;;5079011;27;45377;-67
2024/03/01 05:07:16;;;;;;;;;1.00;1.00;;;;;;;;5084225;27;45582;-67
2024/03/01 05:09:42;;;;;;;;;0.33;0.33;;;;;;;;5080909;27;46483;-67
2024/03/01 05:12:13;;;;;;;;;0.75;0.75;;;;;;;;5083667;27;45686;-66
2024/03/01 05:14:38;;;;;;;;;1.00;1.00;;;;;;;;5081568;27;45283;-66
2024/03/01 05:17:03;;;;;;;;;1.67;1.00;;;;;;;;5093032;27;45467;-67
2024/03/01 05:19:28;;;;;;;;;0.50;0.50;;;;;;;;5091247;27;45405;-66
2024/03/01 05:21:53;;;;;;;;;0.33;0.33;;;;;;;;5099652;27;45656;-66
2024/03/01 05:24:18;;;;;;;;;3.67;2.00;;;;;;;;5085221;27;45572;-67
2024/03/01 05:26:44;;;;;;;;;1.00;1.00;;;;;;;;5079071;27;45462;-66
2024/03/01 05:29:09;;;;;;;;;2.50;1.25;;;;;;;;5078947;28;46093;-67
2024/03/01 05:31:45;;;;;;;;;1.00;1.00;;;;;;;;5082674;27;45247;-66
2024/03/01 05:34:10;;;;;;;;;1.50;0.50;;;;;;;;5087736;27;45297;-66
2024/03/01 05:36:35;;;;;;;;;1.00;1.00;;;;;;;;5091035;27;45304;-66
2024/03/01 05:39:15;;;;;;;;;0.67;0.67;;;;;;;;5078795;27;46603;-67
2024/03/01 05:41:41;;;;;;;;;2.00;1.00;;;;;;;;5078705;27;45669;-66
2024/03/01 05:44:07;;;;;;;;;2.00;1.00;;;;;;;;5079754;27;45323;-67
2024/03/01 05:46:32;;;;;;;;;1.75;1.25;;;;;;;;5090200;27;46192;-67
2024/03/01 05:49:00;;;;;;;;;1.00;1.00;;;;;;;;5079653;27;45568;-66
2024/03/01 05:51:25;;;;;;;;;2.00;1.00;;;;;;;;5084870;27;45272;-66
2024/03/01 05:53:50;;;;;;;;;3.00;1.00;;;;;;;;5084659;27;45282;-66
2024/03/01 05:56:18;;;;;;;;;1.00;1.00;;;;;;;;5086814;27;45368;-66
2024/03/01 05:58:44;;;;;;;;;2.00;2.00;;;;;;;;5079711;27;46223;-66
2024/03/01 06:01:09;;;;;;;;;1.00;1.00;;;;;;;;5075289;27;45642;-66
2024/03/01 06:03:34;;;;;;;;;1.33;1.33;;;;;;;;5092678;27;45327;-66
2024/03/01 06:06:00;;;;;;;;;1.67;0.67;;;;;;;;5080520;27;45399;-66
2024/03/01 06:08:26;;;;;;;;;1.00;1.00;;;;;;;;5078317;27;45527;-66
2024/03/01 06:10:52;;;;;;;;;3.00;2.00;;;;;;;;5078767;27;45458;-66
2024/03/01 06:13:17;;;;;;;;;3.25;1.75;;;;;;;;5081616;27;45862;-67
2024/03/01 06:15:42;;;;;;;;;2.00;2.00;;;;;;;;5102594;27;45404;-66
2024/03/01 06:18:07;;;;;;;;;1.00;1.00;;;;;;;;5086964;27;45549;-66
2024/03/01 06:20:33;;;;;;;;;2.00;2.00;;;;;;;;5090794;27;45274;-66
2024/03/01 06:22:58;;;;;;;;;1.75;1.00;;;;;;;;5102663;27;45330;-66
2024/03/01 06:25:23;;;;;;;;;1.33;1.33;;;;;;;;5090867;27;45737;-66
2024/03/01 06:27:49;;;;;;;;;2.00;0.33;;;;;;;;5088552;27;45538;-66
2024/03/01 06:30:14;;;;;;;;;1.00;1.00;;;;;;;;5082093;27;45298;-66
2024/03/01 06:32:43;;;;;;;;;2.33;1.00;;;;;;;;5073921;27;45476;-66
2024/03/01 06:35:08;;;;;;;;;2.75;1.00;;;;;;;;5082992;27;45461;-66
2024/03/01 06:37:35;;;;;;;;;3.00;1.00;;;;;;;;5080988;27;45568;-66
2024/03/01 06:40:04;;;;;;;;;4.00;2.75;;;;;;;;5075686;27;45487;-66
2024/03/01 06:42:30;;;;;;;;;1.75;1.75;;;;;;;;5081308;27;45509;-66
2024/03/01 06:44:55;;;;;;;;;2.00;2.00;;;;;;;;5088383;27;45731;-66
2024/03/01 06:47:20;;;;;;;;;3.00;3.00;;;;;;;;5100067;27;46580;-66
2024/03/01 06:49:45;;;;;;;;;2.33;2.33;;;;;;;;5082680;27;45479;-66
2024/03/01 06:52:11;;;;;;;;;2.25;2.00;;;;;;;;5081746;27;45317;-66
2024/03/01 06:54:36;;;;;;;;;2.50;2.00;;;;;;;;5089531;27;45545;-66
2024/03/01 06:57:01;;;;;;;;;3.00;2.67;;;;;;;;5079021;27;46295;-66
2024/03/01 06:59:26;;;;;;;;;4.00;2.00;;;;;;;;5080800;27;45505;-66
2024/03/01 07:01:51;;;;;;;;;3.33;3.00;;;;;;;;5080058;27;47012;-66
2024/03/01 07:04:17;;;;;;;;;3.00;3.00;;;;;;;;5081335;27;45601;-66
2024/03/01 07:06:42;;;;;;;;;3.33;3.33;;;;;;;;5086719;27;46468;-66
2024/03/01 07:09:07;;;;;;;;;6.00;3.75;;;;;;;;5080021;27;45656;-67
2024/03/01 07:11:33;;;;;;;;;6.75;4.00;;;;;;;;5074982;27;45409;-67
2024/03/01 07:13:58;;;;;;;;;3.25;2.50;;;;;;;;5068011;27;45504;-66
2024/03/01 07:16:23;;;;;;;;;4.00;3.00;;;;;;;;5085551;27;46075;-67
2024/03/01 07:18:48;;;;;;;;;4.00;4.00;;;;;;;;5095469;27;45342;-66
2024/03/01 07:21:13;;;;;;;;;2.75;1.75;;;;;;;;5075535;27;45651;-66
2024/03/01 07:23:39;;;;;;;;;2.33;2.00;;;;;;;;5069846;27;45502;-66
2024/03/01 07:26:04;;;;;;;;;7.00;4.00;;;;;;;;5069515;27;47005;-67
2024/03/01 07:28:29;;;;;;;;;4.00;2.00;;;;;;;;5075794;27;45845;-66
2024/03/01 07:30:54;;;;;;;;;2.00;2.00;;;;;;;;5088378;27;45644;-66
2024/03/01 07:33:20;;;;;;;;;2.00;2.00;;;;;;;;5081183;27;45354;-66
2024/03/01 07:35:45;;;;;;;;;3.50;1.50;;;;;;;;5080993;27;46217;-67
2024/03/01 07:38:10;;;;;;;;;6.00;2.00;;;;;;;;5080209;27;45563;-66
2024/03/01 07:40:35;;;;;;;;;2.33;2.33;;;;;;;;5078342;28;45655;-66
2024/03/01 07:43:01;;;;;;;;;1.00;1.00;;;;;;;;5075207;27;45559;-66
2024/03/01 07:45:26;;;;;;;;;3.00;1.33;;;;;;;;5079880;27;45457;-66
2024/03/01 07:47:51;;;;;;;;;3.33;2.67;;;;;;;;5081279;27;45374;-66
2024/03/01 07:50:16;;;;;;;;;1.67;1.67;;;;;;;;5085128;27;45437;-66
2024/03/01 07:52:41;;;;;;;;;1.00;1.00;;;;;;;;5082576;27;45357;-66
2024/03/01 07:55:07;;;;;;;;;1.00;1.00;;;;;;;;5084639;27;46896;-66
2024/03/01 07:57:32;;;;;;;;;1.00;1.00;;;;;;;;5080121;27;45383;-65
2024/03/01 07:59:57;;;;;;;;;1.33;1.33;;;;;;;;5087996;27;45577;-65
2024/03/01 08:02:22;;;;;;;;;2.50;1.50;;;;;;;;5083179;27;45431;-65
2024/03/01 08:04:49;;;;;;;;;5.33;3.00;;;;;;;;5088724;27;45317;-65
2024/03/01 08:07:14;;;;;;;;;1.25;1.25;;;;;;;;5096713;27;45380;-65
2024/03/01 08:09:42;;;;;;;;;0.50;0.00;;;;;;;;5077853;27;45440;-65
2024/03/01 08:12:13;;;;;;;;;1.00;0.50;;;;;;;;5075778;27;46044;-65
2024/03/01 08:14:38;;;;;;;;;3.00;2.00;;;;;;;;5072084;27;46058;-65
2024/03/01 08:17:04;;;;;;;;;3.33;0.33;;;;;;;;5076904;27;45551;-65
2024/03/01 08:19:37;;;;;;;;;1.50;0.75;;;;;;;;5077727;27;45498;-65
2024/03/01 08:22:05;;;;;;;;;2.00;1.00;;;;;;;;5081950;27;45392;-65
2024/03/01 08:24:31;;;;;;;;;1.00;1.00;;;;;;;;5077847;27;45529;-65
2024/03/01 08:26:56;;;;;;;;;1.75;1.00;;;;;;;;5091771;27;45697;-65
2024/03/01 08:29:21;;;;;;;;;0.33;0.00;;;;;;;;5086129;27;45556;-64
2024/03/01 08:31:47;;;;;;;;;1.67;1.00;;;;;;;;5079271;27;45633;-64
2024/03/01 08:34:24;;;;;;;;;1.00;1.00;;;;;;;;5088877;27;46140;-72
2024/03/01 08:36:52;;;;;;;;;1.25;1.00;;;;;;;;5068105;27;45665;-61
2024/03/01 08:39:21;;;;;;;;;1.25;1.00;;;;;;;;5073631;27;45437;-61
2024/03/01 08:41:48;;;;;;;;;1.00;0.00;;;;;;;;5071179;27;45339;-61
2024/03/01 08:44:28;;;;;;;;;0.75;0.25;;;;;;;;5079766;27;48306;-61
2024/03/01 08:46:54;;;;;;;;;0.50;0.00;;;;;;;;5080014;27;45438;-61
2024/03/01 08:49:39;;;;;;;;;1.25;1.00;;;;;;;;5077944;27;45382;-61
2024/03/01 08:52:15;;;;;;;;;0.00;0.00;;;;;;;;5076074;27;45580;-60
2024/03/01 08:54:42;;;;;;;;;3.00;1.75;;;;;;;;5076700;28;45480;-61
2024/03/01 08:57:20;;;;;;;;;0.75;0.75;;;;;;;;5078096;27;45658;-61
2024/03/01 08:59:45;;;;;;;;;0.50;0.25;;;;;;;;5074292;27;45497;-61
2024/03/01 09:02:40;;;;;;;;;0.50;0.50;;;;;;;;5073368;27;45665;-63
2024/03/01 09:05:05;;;;;;;;;0.00;0.00;;;;;;;;5067568;27;46550;-61
2024/03/01 09:07:31;;;;;;;;;2.00;1.00;;;;;;;;5076131;27;46033;-61
2024/03/01 09:09:56;;;;;;;;;1.00;1.00;;;;;;;;5067775;27;45497;-61
2024/03/01 09:12:25;;;;;;;;;3.50;2.25;;;;;;;;5074036;27;46111;-61
2024/03/01 09:14:55;;;;;;;;;1.25;1.00;;;;;;;;5081986;27;46143;-61
2024/03/01 09:17:20;;;;;;;;;1.00;1.00;;;;;;;;5077650;27;45874;-61
2024/03/01 09:19:47;;;;;;;;;1.00;1.00;;;;;;;;5072060;27;45466;-61
2024/03/01 09:22:13;;;;;;;;;1.50;0.00;;;;;;;;5073437;28;45425;-61
2024/03/01 09:24:38;;;;;;;;;3.00;1.75;;;;;;;;5091284;27;47046;-61
2024/03/01 09:27:27;;;;;;;;;0.25;0.25;;;;;;;;5081648;27;45715;-61
2024/03/01 09:29:52;;;;;;;;;1.00;1.00;;;;;;;;5076728;27;45551;-61
2024/03/01 09:32:17;;;;;;;;;1.00;1.00;;;;;;;;5078945;27;45509;-61
2024/03/01 09:34:42;;;;;;;;;2.00;1.00;;;;;;;;5077128;27;45986;-61
2024/03/01 09:37:18;;;;;;;;;0.75;0.75;;;;;;;;5075238;27;45660;-61
2024/03/01 09:39:44;;;;;;;;;1.00;1.00;;;;;;;;5075694;27;45563;-61
2024/03/01 09:42:09;;;;;;;;;1.00;1.00;;;;;;;;5077153;28;45513;-61
2024/03/01 09:44:53;;;;;;;;;1.00;0.00;;;;;;;;5076330;28;45509;-60
2024/03/01 09:47:18;;;;;;;;;1.50;0.25;;;;;;;;5076995;27;45530;-60
2024/03/01 09:49:55;;;;;;;;;2.00;2.00;;;;;;;;5076249;27;45667;-60
2024/03/01 09:52:26;;;;;;;;;1.00;1.00;;;;;;;;5078209;27;45534;-61
2024/03/01 09:54:51;;;;;;;;;0.25;0.00;;;;;;;;5074946;27;48210;-60
2024/03/01 09:57:23;;;;;;;;;1.00;1.00;;;;;;;;5074410;28;45489;-60
2024/03/01 10:00:01;;;;;;;;;2.00;1.00;;;;;;;;5077094;27;45423;-61
2024/03/01 10:02:26;;;;;;;;;1.00;1.00;;;;;;;;5078527;27;45420;-60
2024/03/01 10:05:19;;;;;;;;;1.67;1.67;;;;;;;;5079105;27;45312;-61
2024/03/01 10:07:44;;;;;;;;;3.00;1.00;;;;;;;;5067484;27;45402;-60
2024/03/01 10:10:11;;;;;;;;;2.00;0.00;;;;;;;;5077181;27;45368;-61
2024/03/01 10:12:46;;;;;;;;;3.75;1.00;;;;;;;;5075228;28;45955;-60
2024/03/01 10:15:18;;;;;;;;;2.00;1.00;;;;;;;;5075717;28;45678;-61
2024/03/01 10:18:09;;;;;;;;;0.25;0.25;;;;;;;;5075873;27;45674;-61
2024/03/01 10:20:40;;;;;;;;;2.00;1.00;;;;;;;;5076634;27;45483;-61
2024/03/01 10:23:05;;;;;;;;;3.50;2.00;;;;;;;;5072543;27;45334;-61
2024/03/01 10:25:43;;;;;;;;;3.00;1.75;;;;;;;;5080072;27;46899;-61
2024/03/01 10:28:08;;;;;;;;;2.75;1.75;;;;;;;;5078029;27;45844;-60
2024/03/01 10:30:39;;;;;;;;;1.00;1.00;;;;;;;;5077966;27;45581;-60
2024/03/01 10:33:15;;;;;;;;;4.75;1.25;;;;;;;;5076746;27;45454;-60
2024/03/01 10:35:41;;;;;;;;;3.00;2.00;;;;;;;;5076963;27;45469;-61
2024/03/01 10:38:07;;;;;;;;;1.50;1.50;;;;;;;;5072639;27;45484;-60
2024/03/01 10:40:35;;;;;;;;;1.00;1.00;;;;;;;;5074282;27;45730;-60
2024/03/01 10:43:06;;;;;;;;;3.00;1.00;;;;;;;;5076497;27;45460;-61
2024/03/01 10:45:37;;;;;;;;;1.50;1.50;;;;;;;;5075569;27;45753;-61
2024/03/01 10:48:03;;;;;;;;;1.50;1.00;;;;;;;;5076390;27;45412;-60
2024/03/01 10:50:32;;;;;;;;;4.00;1.50;;;;;;;;5073044;27;45461;-60
2024/03/01 10:53:00;;;;;;;;;2.00;1.25;;;;;;;;5086734;27;45388;-60
2024/03/01 10:55:30;;;;;;;;;3.00;0.00;;;;;;;;5076044;28;46556;-60
2024/03/01 10:58:05;;;;;;;;;2.00;2.00;;;;;;;;5084293;27;45658;-60
2024/03/01 11:00:31;;;;;;;;;2.00;2.00;;;;;;;;5084305;27;45252;-61
2024/03/01 11:03:00;;;;;;;;;2.75;1.50;;;;;;;;5078706;27;45441;-60
2024/03/01 11:05:25;;;;;;;;;2.75;2.25;;;;;;;;5081248;27;47118;-61
2024/03/01 11:07:58;;;;;;;;;1.67;1.00;;;;;;;;5081401;27;45907;-61
2024/03/01 11:10:47;;;;;;;;;1.75;1.00;;;;;;;;5078636;27;45722;-61
2024/03/01 11:13:16;;;;;;;;;1.75;0.50;;;;;;;;5079611;27;45550;-61
2024/03/01 11:15:41;;;;;;;;;2.00;1.50;;;;;;;;5078280;27;45305;-60
2024/03/01 11:18:10;;;;;;;;;1.75;1.00;;;;;;;;5091602;27;45694;-60
2024/03/01 11:20:46;;;;;;;;;1.00;1.00;;;;;;;;5097170;27;45506;-60
2024/03/01 11:23:22;;;;;;;;;0.75;0.75;;;;;;;;5076651;27;45536;-60
2024/03/01 11:25:49;;;;;;;;;1.50;0.00;;;;;;;;5080232;27;45489;-60
2024/03/01 11:28:17;;;;;;;;;2.00;2.00;;;;;;;;5086988;27;45412;-60
2024/03/01 11:30:45;;;;;;;;;2.50;1.00;;;;;;;;5078539;27;45489;-60
2024/03/01 11:33:11;;;;;;;;;2.00;1.00;;;;;;;;5093297;27;45511;-60
2024/03/01 11:35:46;;;;;;;;;1.00;1.00;;;;;;;;5089685;27;45356;-61
2024/03/01 11:38:18;;;;;;;;;0.25;0.25;;;;;;;;5077019;27;45932;-61
2024/03/01 11:40:47;;;;;;;;;2.50;0.00;;;;;;;;5079981;27;45456;-60
2024/03/01 11:43:15;;;;;;;;;5.00;2.00;;;;;;;;5073939;27;45654;-61
2024/03/01 11:45:46;;;;;;;;;4.00;1.25;;;;;;;;5079224;27;46180;-61
2024/03/01 11:48:31;;;;;;;;;2.00;1.00;;;;;;;;5078872;27;45339;-62
2024/03/01 11:51:05;;;;;;;;;1.00;1.00;;;;;;;;5079257;27;45412;-60
2024/03/01 11:53:39;;;;;;;;;2.25;1.00;;;;;;;;5091910;27;45387;-61
2024/03/01 11:56:13;;;;;;;;;3.00;2.00;;;;;;;;5085439;27;45492;-61
2024/03/01 11:59:11;;;;;;;;;1.00;1.00;;;;;;;;5084354;27;45606;-60
2024/03/01 12:01:40;;;;;;;;;2.00;1.00;;;;;;;;5054920;28;45557;-60
2024/03/01 12:04:14;;;;;;;;;3.00;2.00;;;;;;;;5078378;27;45540;-61
2024/03/01 12:06:39;;;;;;;;;2.00;2.00;;;;;;;;5080125;27;45313;-60
2024/03/01 12:09:16;;;;;;;;;1.33;0.00;;;;;;;;5100287;27;45462;-61
2024/03/01 12:11:57;;;;;;;;;1.00;1.00;;;;;;;;5084157;27;45664;-61
2024/03/01 12:14:26;;;;;;;;;0.00;0.00;;;;;;;;5088835;27;45327;-60
2024/03/01 12:16:51;;;;;;;;;1.25;1.00;;;;;;;;5092126;27;46512;-60
2024/03/01 12:19:17;;;;;;;;;1.00;1.00;;;;;;;;5073467;27;45977;-60
2024/03/01 12:21:45;;;;;;;;;0.00;0.00;;;;;;;;5085440;27;45895;-61
2024/03/01 12:24:13;;;;;;;;;1.25;0.00;;;;;;;;5092175;27;45362;-60
2024/03/01 12:26:57;;;;;;;;;1.00;0.25;;;;;;;;5080385;27;45474;-61
2024/03/01 12:29:31;;;;;;;;;0.75;0.25;;;;;;;;5078080;27;45614;-60
2024/03/01 12:32:06;;;;;;;;;0.00;0.00;;;;;;;;5078705;28;45562;-61
2024/03/01 12:34:55;;;;;;;;;0.00;0.00;;;;;;;;5088726;27;45445;-60
2024/03/01 12:37:23;;;;;;;;;2.00;1.00;;;;;;;;5054149;28;46566;-60
2024/03/01 12:39:59;;;;;;;;;1.00;0.25;;;;;;;;5077489;27;45727;-60
2024/03/01 12:42:35;;;;;;;;;0.00;0.00;;;;;;;;5076443;27;45494;-60
2024/03/01 12:45:03;;;;;;;;;0.25;0.25;;;;;;;;5074190;28;45542;-61
2024/03/01 12:47:48;;;;;;;;;1.00;1.00;;;;;;;;5074113;27;46535;-60
2024/03/01 12:50:13;;;;;;;;;1.00;0.00;;;;;;;;5085183;27;45719;-61
2024/03/01 12:52:51;;;;;;;;;1.25;1.25;;;;;;;;5081008;27;45325;-61
2024/03/01 12:55:31;;;;;;;;;3.00;0.00;;;;;;;;5074967;27;45606;-60
2024/03/01 12:57:57;;;;;;;;;1.50;0.00;;;;;;;;5073416;27;46253;-60
2024/03/01 13:00:26;;;;;;;;;0.00;0.00;;;;;;;;5073192;27;45923;-61
2024/03/01 13:03:00;;;;;;;;;0.00;0.00;;;;;;;;5083730;27;45396;-60
2024/03/01 13:05:26;;;;;;;;;0.00;0.00;;;;;;;;5067934;27;45366;-61
2024/03/01 13:07:56;;;;;;;;;0.00;0.00;;;;;;;;5072008;27;47908;-60
2024/03/01 13:10:24;;;;;;;;;1.00;1.00;;;;;;;;5064948;27;45677;-61
2024/03/01 13:12:57;;;;;;;;;0.00;0.00;;;;;;;;5076528;27;45800;-60
2024/03/01 13:15:30;;;;;;;;;1.00;1.00;;;;;;;;5073618;27;45534;-60
2024/03/01 13:18:08;;;;;;;;;1.00;0.00;;;;;;;;5068652;27;47095;-61
2024/03/01 13:20:39;;;;;;;;;0.00;0.00;;;;;;;;5071807;27;45519;-61
2024/03/01 13:23:18;;;;;;;;;0.00;0.00;;;;;;;;5068284;27;45764;-61
2024/03/01 13:25:53;;;;;;;;;0.00;0.00;;;;;;;;5073442;27;45919;-61
2024/03/01 13:28:25;;;;;;;;;0.00;0.00;;;;;;;;5067958;27;47725;-61
2024/03/01 13:30:53;;;;;;;;;0.00;0.00;;;;;;;;5069016;27;45737;-62
2024/03/01 13:33:31;;;;;;;;;0.00;0.00;;;;;;;;5072814;27;46577;-63
2024/03/01 13:36:10;;;;;;;;;0.75;0.00;;;;;;;;5073099;27;45730;-63
2024/03/01 13:38:42;;;;;;;;;0.00;0.00;;;;;;;;5071117;28;47375;-63
2024/03/01 13:41:16;;;;;;;;;0.00;0.00;;;;;;;;5073618;27;45796;-63
2024/03/01 13:43:45;;;;;;;;;0.00;0.00;;;;;;;;5083760;27;45601;-63
2024/03/01 13:46:15;;;;;;;;;0.00;0.00;;;;;;;;5080054;27;45652;-63
2024/03/01 13:48:43;;;;;;;;;0.75;0.75;;;;;;;;5084079;27;47176;-63
2024/03/01 13:51:09;;;;;;;;;1.00;0.25;;;;;;;;5071555;28;46018;-62
2024/03/01 13:53:35;;;;;;;;;0.00;0.00;;;;;;;;5075277;27;45609;-63
2024/03/01 13:56:01;;;;;;;;;0.00;0.00;;;;;;;;5068197;27;45588;-63
2024/03/01 13:58:30;;;;;;;;;0.00;0.00;;;;;;;;5068520;28;48226;-63
2024/03/01 14:00:57;;;;;;;;;0.25;0.00;;;;;;;;5076615;27;46672;-62
2024/03/01 14:03:24;;;;;;;;;0.00;0.00;;;;;;;;5073442;28;45864;-62
2024/03/01 14:05:50;;;;;;;;;1.00;1.00;;;;;;;;5073802;27;45563;-62
2024/03/01 14:08:22;;;;;;;;;0.00;0.00;;;;;;;;5068804;27;47329;-62
2024/03/01 14:10:48;;;;;;;;;1.75;0.00;;;;;;;;5074616;27;45535;-62
2024/03/01 14:13:13;;;;;;;;;0.00;0.00;;;;;;;;5074498;27;45578;-62
2024/03/01 14:15:38;;;;;;;;;1.50;1.00;;;;;;;;5073750;27;45638;-62
2024/03/01 14:18:04;;;;;;;;;2.67;2.00;;;;;;;;5073378;27;45862;-62
2024/03/01 14:20:29;;;;;;;;;2.00;0.75;;;;;;;;5067459;27;45761;-61
2024/03/01 14:22:55;;;;;;;;;0.25;0.25;;;;;;;;5073655;27;45860;-61
2024/03/01 14:25:21;;;;;;;;;2.67;1.00;;;;;;;;5073408;27;46943;-61
2024/03/01 14:27:47;;;;;;;;;1.00;0.00;;;;;;;;5073691;27;45705;-61
2024/03/01 14:30:16;;;;;;;;;2.00;1.00;;;;;;;;5076104;27;45897;-61
2024/03/01 14:32:51;;;;;;;;;0.00;0.00;;;;;;;;5077891;27;45415;-61
2024/03/01 14:35:18;;;;;;;;;2.00;1.00;;;;;;;;5078136;27;45646;-61
2024/03/01 14:37:43;;;;;;;;;3.00;0.75;;;;;;;;5079156;27;45901;-61
2024/03/01 14:40:08;;;;;;;;;0.67;0.67;;;;;;;;5075872;27;45546;-61
2024/03/01 14:42:33;;;;;;;;;0.00;0.00;;;;;;;;5080491;27;45408;-61
2024/03/01 14:45:03;;;;;;;;;1.00;1.00;;;;;;;;5080651;27;45835;-62
2024/03/01 14:47:28;;;;;;;;;2.00;1.00;;;;;;;;5081882;27;45413;-61